createdAt,value
2018-11-22T12:16:39.749Z,52.03
2018-11-22T12:19:09.510Z,45.50
2018-11-22T12:21:39.444Z,52.37
2018-11-22T12:24:09.069Z,48.03
2018-11-22T12:26:38.941Z,40.60
2018-11-22T12:29:08.794Z,49.73
2018-11-22T12:31:38.469Z,45.88
2018-11-22T12:34:13.166Z,48.83
2018-11-22T12:36:47.858Z,42.20
2018-11-22T12:39:17.698Z,49.93
2018-11-22T12:41:47.545Z,41.83
2018-11-22T12:44:17.449Z,40.15
2018-11-22T12:46:47.169Z,40.17
2018-11-22T12:49:16.821Z,111.80
2018-11-22T12:51:46.691Z,49.13
2018-11-22T12:54:16.394Z,49.67
2018-11-22T12:56:46.233Z,43.35
2018-11-22T12:59:15.837Z,51.77
2018-11-22T13:01:45.570Z,46.23
2018-11-22T13:04:15.438Z,45.10
2018-11-22T13:06:45.277Z,48.03
2018-11-22T13:09:15.117Z,44.60
2018-11-22T13:11:47.707Z,40.50
2018-11-22T13:14:14.593Z,41.07
2018-11-22T13:16:44.248Z,38.10
2018-11-22T13:19:13.943Z,43.80
2018-11-22T13:21:43.665Z,43.23
2018-11-22T13:24:13.607Z,43.08
2018-11-22T13:26:43.405Z,39.97
2018-11-22T13:29:13.286Z,47.35
2018-11-22T13:31:43.221Z,44.42
2018-11-22T13:34:12.977Z,138.83
2018-11-22T13:36:42.755Z,57.03
2018-11-22T13:39:12.776Z,47.00
2018-11-22T13:41:42.481Z,186.33
2018-11-22T13:44:12.175Z,94.27
2018-11-22T13:46:42.056Z,83.40
2018-11-22T13:49:11.909Z,52.20
2018-11-22T13:51:41.779Z,85.60
2018-11-22T13:54:11.333Z,104.20
2018-11-22T13:56:41.109Z,155.43
2018-11-22T13:59:10.854Z,455.00
2018-11-22T14:01:40.659Z,343.27
2018-11-22T14:04:10.429Z,102.50
2018-11-22T14:06:40.168Z,166.55
2018-11-22T14:09:10.931Z,67.78
2018-11-22T14:11:40.686Z,53.70
2018-11-22T14:14:10.520Z,44.23
2018-11-22T14:16:40.310Z,44.58
2018-11-22T14:19:10.065Z,51.50
2018-11-22T14:21:39.864Z,48.63
2018-11-22T14:24:09.698Z,49.85
2018-11-22T14:26:39.567Z,45.85
2018-11-22T14:29:09.438Z,52.45
2018-11-22T14:31:39.201Z,44.38
2018-11-22T14:34:08.939Z,55.50
2018-11-22T14:36:38.513Z,56.03
2018-11-22T14:39:08.833Z,46.50
2018-11-22T14:41:38.641Z,88.67
2018-11-22T14:44:08.398Z,66.87
2018-11-22T14:46:38.093Z,57.38
2018-11-22T14:49:08.051Z,47.55
2018-11-22T14:51:46.794Z,59.83
2018-11-22T14:54:16.506Z,48.63
2018-11-22T14:56:46.163Z,48.92
2018-11-22T14:59:15.869Z,50.03
2018-11-22T15:01:45.782Z,56.48
2018-11-22T15:04:15.461Z,46.50
2018-11-22T15:06:45.208Z,53.55
2018-11-22T15:09:15.854Z,54.20
2018-11-22T15:11:45.625Z,53.97
2018-11-22T15:14:15.325Z,62.05
2018-11-22T15:16:45.078Z,48.60
2018-11-22T15:19:14.941Z,51.53
2018-11-22T15:21:44.704Z,43.95
2018-11-22T15:24:14.562Z,56.50
2018-11-22T15:26:44.323Z,58.73
2018-11-22T15:29:14.186Z,51.33
2018-11-22T15:31:43.566Z,59.70
2018-11-22T15:34:12.998Z,55.98
2018-11-22T15:36:42.353Z,61.68
2018-11-22T15:39:11.799Z,52.27
2018-11-22T15:41:41.232Z,56.75
2018-11-22T15:44:10.693Z,56.65
2018-11-22T15:46:40.243Z,57.95
2018-11-22T15:49:09.649Z,52.13
2018-11-22T15:51:39.348Z,54.53
2018-11-22T15:54:08.793Z,55.33
2018-11-22T15:56:38.372Z,53.35
2018-11-22T15:59:07.757Z,53.42
2018-11-22T16:01:37.170Z,50.43
2018-11-22T16:04:06.693Z,56.75
2018-11-22T16:06:36.790Z,50.92
2018-11-22T16:09:08.984Z,57.98
2018-11-22T16:11:38.533Z,56.55
2018-11-22T16:14:08.212Z,53.08
2018-11-22T16:16:37.608Z,57.98
2018-11-22T16:19:07.220Z,63.90
2018-11-22T16:21:36.661Z,56.57
2018-11-22T16:24:06.155Z,65.08
2018-11-22T16:26:35.809Z,55.65
2018-11-22T16:29:05.512Z,60.88
2018-11-22T16:31:35.128Z,57.05
2018-11-22T16:34:04.778Z,65.95
2018-11-22T16:36:34.349Z,61.23
2018-11-22T16:39:04.148Z,53.25
2018-11-22T16:41:33.990Z,56.15
2018-11-22T16:44:03.469Z,47.38
2018-11-22T16:46:32.918Z,54.23
2018-11-22T16:49:02.319Z,51.50
2018-11-22T16:51:31.884Z,52.00
2018-11-22T16:54:01.291Z,60.78
2018-11-22T16:56:30.909Z,57.30
2018-11-22T16:59:00.291Z,50.23
2018-11-22T17:01:29.809Z,53.10
2018-11-22T17:03:59.229Z,56.75
2018-11-22T17:06:28.814Z,45.92
2018-11-22T17:08:58.549Z,57.75
2018-11-22T17:11:27.926Z,57.80
2018-11-22T17:13:57.277Z,46.70
2018-11-22T17:16:26.678Z,57.05
2018-11-22T17:18:56.317Z,47.55
2018-11-22T17:21:25.995Z,41.50
2018-11-22T17:23:55.661Z,45.75
2018-11-22T17:26:25.093Z,47.17
2018-11-22T17:28:54.693Z,44.45
2018-11-22T17:31:24.426Z,45.05
2018-11-22T17:33:54.022Z,43.87
2018-11-22T17:36:23.559Z,43.70
2018-11-22T17:38:52.937Z,42.53
2018-11-22T17:41:22.299Z,45.52
2018-11-22T17:43:52.106Z,41.60
2018-11-22T17:46:21.453Z,40.52
2018-11-22T17:48:51.121Z,42.83
2018-11-22T17:51:20.615Z,42.65
2018-11-22T17:53:49.969Z,44.53
2018-11-22T17:56:19.517Z,46.80
2018-11-22T17:58:48.937Z,44.75
2018-11-22T18:01:18.313Z,44.58
2018-11-22T18:03:47.761Z,41.18
2018-11-22T18:06:17.201Z,45.25
2018-11-22T18:08:46.743Z,46.28
2018-11-22T18:11:16.129Z,47.23
2018-11-22T18:13:45.748Z,43.95
2018-11-22T18:16:15.366Z,46.00
2018-11-22T18:18:45.197Z,45.67
2018-11-22T18:21:14.788Z,43.28
2018-11-22T18:23:44.517Z,43.38
2018-11-22T18:26:14.062Z,45.58
2018-11-22T18:28:43.700Z,49.95
2018-11-22T18:31:13.266Z,48.68
2018-11-22T18:33:42.637Z,49.55
2018-11-22T18:36:12.058Z,46.92
2018-11-22T18:38:41.462Z,46.75
2018-11-22T18:41:11.050Z,51.30
2018-11-22T18:43:40.454Z,44.40
2018-11-22T18:46:09.885Z,51.75
2018-11-22T18:48:39.314Z,54.13
2018-11-22T18:51:08.773Z,45.20
2018-11-22T18:53:38.439Z,52.53
2018-11-22T18:56:07.886Z,47.93
2018-11-22T18:58:37.504Z,55.40
2018-11-22T19:01:07.164Z,62.90
2018-11-22T19:03:36.942Z,86.90
2018-11-22T19:06:06.817Z,56.58
2018-11-22T19:08:36.482Z,49.83
2018-11-22T19:11:06.389Z,54.65
2018-11-22T19:13:35.773Z,47.05
2018-11-22T19:16:05.626Z,47.98
2018-11-22T19:18:35.265Z,60.70
2018-11-22T19:21:04.797Z,45.80
2018-11-22T19:23:34.590Z,47.08
2018-11-22T19:26:04.812Z,59.38
2018-11-22T19:28:34.412Z,54.85
2018-11-22T19:31:04.270Z,45.67
2018-11-22T19:33:34.231Z,50.83
2018-11-22T19:36:03.848Z,44.80
2018-11-22T19:38:33.559Z,49.42
2018-11-22T19:41:02.938Z,50.95
2018-11-22T19:43:32.426Z,63.13
2018-11-22T19:46:02.225Z,59.88
2018-11-22T19:48:32.780Z,53.78
2018-11-22T19:51:05.811Z,46.73
2018-11-22T19:53:31.338Z,53.90
2018-11-22T19:56:01.034Z,59.45
2018-11-22T19:58:30.674Z,60.92
2018-11-22T20:01:03.558Z,52.15
2018-11-22T20:03:29.781Z,54.05
2018-11-22T20:05:59.155Z,47.15
2018-11-22T20:08:29.321Z,50.20
2018-11-22T20:10:58.759Z,49.60
2018-11-22T20:13:28.380Z,58.40
2018-11-22T20:15:59.144Z,57.35
2018-11-22T20:18:29.352Z,57.23
2018-11-22T20:20:58.750Z,62.58
2018-11-22T20:23:28.154Z,55.23
2018-11-22T20:25:57.661Z,60.57
2018-11-22T20:28:27.055Z,58.58
2018-11-22T20:30:56.599Z,53.77
2018-11-22T20:33:26.526Z,60.38
2018-11-22T20:35:56.274Z,53.60
2018-11-22T20:38:26.033Z,66.00
2018-11-22T20:40:57.436Z,54.03
2018-11-22T20:43:25.373Z,51.73
2018-11-22T20:45:55.163Z,68.53
2018-11-22T20:48:24.911Z,55.00
2018-11-22T20:50:54.683Z,58.50
2018-11-22T20:53:24.442Z,52.93
2018-11-22T20:55:54.413Z,56.53
2018-11-22T20:58:24.136Z,61.40
2018-11-22T21:00:53.942Z,57.00
2018-11-22T21:03:23.677Z,59.13
2018-11-22T21:05:53.457Z,60.27
2018-11-22T21:08:23.310Z,55.80
2018-11-22T21:10:53.080Z,57.30
2018-11-22T21:13:22.847Z,55.37
2018-11-22T21:15:52.561Z,63.23
2018-11-22T21:18:22.357Z,60.80
2018-11-22T21:20:52.078Z,59.37
2018-11-22T21:23:21.834Z,58.20
2018-11-22T21:25:51.594Z,57.67
2018-11-22T21:28:21.355Z,55.43
2018-11-22T21:30:51.012Z,56.03
2018-11-22T21:33:20.767Z,55.00
2018-11-22T21:35:50.554Z,56.50
2018-11-22T21:38:20.355Z,58.83
2018-11-22T21:40:50.168Z,50.30
2018-11-22T21:43:19.761Z,52.73
2018-11-22T21:45:49.594Z,49.60
2018-11-22T21:48:19.491Z,52.43
2018-11-22T21:50:49.362Z,63.10
2018-11-22T21:53:19.152Z,47.30
2018-11-22T21:55:48.883Z,50.00
2018-11-22T21:58:18.645Z,48.37
2018-11-22T22:00:48.297Z,43.70
2018-11-22T22:03:18.017Z,42.33
2018-11-22T22:05:47.673Z,37.53
2018-11-22T22:08:17.437Z,40.87
2018-11-22T22:10:47.190Z,43.80
2018-11-22T22:13:16.804Z,46.53
2018-11-22T22:15:46.614Z,36.43
2018-11-22T22:18:21.108Z,31.80
2018-11-22T22:20:46.285Z,40.23
2018-11-22T22:23:16.053Z,27.87
2018-11-22T22:25:45.770Z,25.73
2018-11-22T22:28:15.573Z,24.30
2018-11-22T22:30:45.228Z,27.73
2018-11-22T22:33:14.950Z,28.53
2018-11-22T22:35:44.770Z,25.07
2018-11-22T22:38:14.468Z,24.77
2018-11-22T22:40:44.327Z,25.40
2018-11-22T22:43:14.136Z,25.40
2018-11-22T22:45:43.878Z,30.63
2018-11-22T22:48:13.717Z,28.05
2018-11-22T22:50:43.384Z,24.87
2018-11-22T22:53:13.233Z,25.00
2018-11-22T22:55:42.897Z,23.75
2018-11-22T22:58:12.690Z,19.95
2018-11-22T23:00:49.895Z,23.12
2018-11-22T23:03:19.694Z,23.57
2018-11-22T23:05:49.457Z,27.60
2018-11-22T23:08:19.121Z,24.57
2018-11-22T23:10:49.013Z,23.90
2018-11-22T23:13:18.741Z,22.17
2018-11-22T23:15:48.479Z,27.30
2018-11-22T23:18:18.266Z,24.10
2018-11-22T23:20:47.989Z,24.27
2018-11-22T23:23:17.740Z,25.97
2018-11-22T23:25:47.488Z,23.23
2018-11-22T23:28:17.270Z,21.10
2018-11-22T23:30:47.018Z,23.10
2018-11-22T23:33:16.788Z,23.40
2018-11-22T23:35:46.540Z,24.47
2018-11-22T23:38:16.330Z,22.00
2018-11-22T23:40:46.021Z,25.93
2018-11-22T23:43:15.782Z,25.17
2018-11-22T23:45:45.588Z,22.90
2018-11-22T23:48:15.302Z,27.53
2018-11-22T23:50:45.157Z,23.80
2018-11-22T23:53:14.922Z,25.93
2018-11-22T23:55:44.681Z,25.37
2018-11-22T23:58:14.347Z,24.33
